Time;durP1;ratioP1;P1;durP2;ratioP2;P2;SDS_P1;SDS_P2;PMS_P1;PMS_P2;Temp;Humidity;BMP_temperature;BMP_pressure;BME280_temperature;BME280_humidity;BME280_pressure;Samples;Min_cycle;Max_cycle;Signal;HPM_P1;HPM_P2
2022/11/08 00:02:13;;;;;;;;;;;11.00;99.90;;;;;;5094590;28;20010;-75
2022/11/08 00:04:39;;;;;;;;;;;11.00;99.90;;;;;;5094165;28;19998;-75
2022/11/08 00:15:17;;;;;;;;;;;11.00;99.90;;;;;;5095066;28;19919;-74
2022/11/08 00:17:43;;;;;;;;;;;11.00;99.90;;;;;;5093391;28;20285;-74
2022/11/08 00:20:09;;;;;;;;;;;11.00;99.90;;;;;;5093900;28;20387;-76
2022/11/08 00:22:34;;;;;;;;;;;11.00;99.90;;;;;;5093769;28;19991;-76
2022/11/08 00:25:00;;;;;;;;;;;11.00;99.90;;;;;;5093965;28;19915;-75
2022/11/08 00:27:26;;;;;;;;;;;10.90;99.90;;;;;;5093958;28;20361;-75
2022/11/08 00:29:52;;;;;;;;;;;10.90;99.90;;;;;;5094707;28;19908;-75
2022/11/08 00:32:19;;;;;;;;;;;10.90;99.90;;;;;;5093631;28;19915;-75
2022/11/08 00:34:44;;;;;;;;;;;10.90;99.90;;;;;;5094015;28;19938;-75
2022/11/08 00:37:10;;;;;;;;;;;10.90;99.90;;;;;;5093722;28;19908;-75
2022/11/08 00:39:36;;;;;;;;;;;10.90;99.90;;;;;;5093583;28;19909;-75
2022/11/08 00:42:01;;;;;;;;;;;10.80;99.90;;;;;;5094289;28;19915;-75
2022/11/08 00:44:27;;;;;;;;;;;10.80;99.90;;;;;;5092785;28;19912;-75
2022/11/08 00:46:53;;;;;;;;;;;10.80;99.90;;;;;;5094509;28;19912;-75
2022/11/08 00:49:18;;;;;;;;;;;10.80;99.90;;;;;;5093554;28;19938;-75
2022/11/08 00:51:44;;;;;;;;;;;10.80;99.90;;;;;;5093182;28;20749;-75
2022/11/08 00:54:12;;;;;;;;;;;10.80;99.90;;;;;;5094418;28;19919;-75
2022/11/08 00:56:37;;;;;;;;;;;10.80;99.90;;;;;;5094212;28;19912;-75
2022/11/08 00:59:03;;;;;;;;;;;10.80;99.90;;;;;;5094135;28;20012;-75
2022/11/08 01:01:29;;;;;;;;;;;10.80;99.90;;;;;;5092600;28;19924;-75
2022/11/08 01:03:54;;;;;;;;;;;10.80;99.90;;;;;;5092592;28;19961;-75
2022/11/08 01:06:21;;;;;;;;;;;10.80;99.90;;;;;;5093951;28;19959;-75
2022/11/08 01:08:48;;;;;;;;;;;10.80;99.90;;;;;;5093323;28;19911;-75
2022/11/08 01:11:15;;;;;;;;;;;10.80;99.90;;;;;;5093620;28;19908;-74
2022/11/08 01:13:41;;;;;;;;;;;10.70;99.90;;;;;;5092191;28;19944;-74
2022/11/08 01:16:06;;;;;;;;;;;10.70;99.90;;;;;;5093762;28;19952;-75
2022/11/08 01:18:32;;;;;;;;;;;10.60;99.90;;;;;;5092574;28;19908;-75
2022/11/08 01:20:58;;;;;;;;;;;10.60;99.90;;;;;;5093171;28;19912;-75
2022/11/08 01:23:23;;;;;;;;;;;10.60;99.90;;;;;;5092598;28;19909;-75
2022/11/08 01:25:49;;;;;;;;;;;10.60;99.90;;;;;;5092436;28;20300;-75
2022/11/08 01:28:15;;;;;;;;;;;10.60;99.90;;;;;;5093276;28;19951;-76
2022/11/08 01:30:41;;;;;;;;;;;10.50;99.90;;;;;;5092364;28;19908;-75
2022/11/08 01:33:07;;;;;;;;;;;10.60;99.90;;;;;;5093001;28;19963;-75
2022/11/08 01:35:33;;;;;;;;;;;10.60;99.90;;;;;;5091268;28;20000;-75
2022/11/08 01:37:59;;;;;;;;;;;10.60;99.90;;;;;;5093163;28;19912;-75
2022/11/08 01:40:26;;;;;;;;;;;10.50;99.90;;;;;;5095033;28;19919;-74
2022/11/08 01:42:51;;;;;;;;;;;10.50;99.90;;;;;;5095187;28;19934;-75
2022/11/08 01:45:36;;;;;;;;;;;10.60;99.90;;;;;;5094698;28;19908;-75
2022/11/08 01:48:01;;;;;;;;;;;10.50;99.90;;;;;;5093222;28;19914;-76
2022/11/08 01:50:27;;;;;;;;;;;10.50;99.90;;;;;;5093294;28;19908;-75
2022/11/08 01:52:54;;;;;;;;;;;10.40;99.90;;;;;;5092730;28;19912;-75
2022/11/08 01:55:19;;;;;;;;;;;10.40;99.90;;;;;;5092533;28;19912;-75
2022/11/08 01:58:01;;;;;;;;;;;10.40;99.90;;;;;;5091983;28;20002;-75
2022/11/08 02:00:26;;;;;;;;;;;10.40;99.90;;;;;;5090878;28;19958;-75
2022/11/08 02:02:55;;;;;;;;;;;10.40;99.90;;;;;;5091360;28;20273;-75
2022/11/08 02:05:24;;;;;;;;;;;10.40;99.90;;;;;;5092786;28;19931;-75
2022/11/08 02:07:51;;;;;;;;;;;10.30;99.90;;;;;;5092081;28;20526;-75
2022/11/08 02:10:17;;;;;;;;;;;10.30;99.90;;;;;;5092343;28;19954;-75
2022/11/08 02:12:43;;;;;;;;;;;10.30;99.90;;;;;;5091461;28;19947;-75
2022/11/08 02:15:09;;;;;;;;;;;10.20;99.90;;;;;;5092757;28;20284;-75
2022/11/08 02:17:35;;;;;;;;;;;10.20;99.90;;;;;;5092115;28;19908;-75
2022/11/08 02:20:01;;;;;;;;;;;10.20;99.90;;;;;;5092585;28;19915;-75
2022/11/08 02:22:32;;;;;;;;;;;10.20;99.90;;;;;;5092531;28;19908;-75
2022/11/08 02:24:57;;;;;;;;;;;10.20;99.90;;;;;;5092461;28;19924;-75
2022/11/08 02:27:24;;;;;;;;;;;10.20;99.90;;;;;;5091276;28;19915;-76
2022/11/08 02:29:53;;;;;;;;;;;10.10;99.90;;;;;;5091657;28;19912;-75
2022/11/08 02:32:19;;;;;;;;;;;10.10;99.90;;;;;;5092528;28;19919;-75
2022/11/08 02:34:50;;;;;;;;;;;10.10;99.90;;;;;;5091603;28;19912;-76
2022/11/08 02:37:16;;;;;;;;;;;10.10;99.90;;;;;;5091847;28;19909;-75
2022/11/08 02:39:42;;;;;;;;;;;10.10;99.90;;;;;;5091008;28;19993;-75
2022/11/08 02:42:12;;;;;;;;;;;10.00;99.90;;;;;;5092113;28;19908;-76
2022/11/08 02:44:37;;;;;;;;;;;10.00;99.90;;;;;;5091640;28;19908;-75
2022/11/08 02:47:03;;;;;;;;;;;10.00;99.90;;;;;;5090975;28;20000;-75
2022/11/08 02:49:28;;;;;;;;;;;10.00;99.90;;;;;;5092597;28;19912;-75
2022/11/08 02:51:54;;;;;;;;;;;10.00;99.90;;;;;;5091576;28;20031;-75
2022/11/08 02:54:19;;;;;;;;;;;10.00;99.90;;;;;;5091240;28;19912;-76
2022/11/08 02:56:45;;;;;;;;;;;10.00;99.90;;;;;;5091784;28;19912;-76
2022/11/08 02:59:11;;;;;;;;;;;10.00;99.90;;;;;;5091771;28;19909;-75
2022/11/08 03:01:36;;;;;;;;;;;10.00;99.90;;;;;;5095237;28;20014;-76
2022/11/08 03:04:02;;;;;;;;;;;10.00;99.90;;;;;;5094857;28;20379;-76
2022/11/08 03:06:27;;;;;;;;;;;10.00;99.90;;;;;;5096620;28;19908;-76
2022/11/08 03:08:53;;;;;;;;;;;10.00;99.90;;;;;;5095746;28;19990;-75
2022/11/08 03:11:18;;;;;;;;;;;10.00;99.90;;;;;;5096534;28;19912;-75
2022/11/08 03:13:44;;;;;;;;;;;10.10;99.90;;;;;;5095475;28;19912;-75
2022/11/08 03:16:09;;;;;;;;;;;10.10;99.90;;;;;;5095972;28;19912;-75
2022/11/08 03:18:35;;;;;;;;;;;10.10;99.90;;;;;;5096708;28;19916;-75
2022/11/08 03:21:01;;;;;;;;;;;10.10;99.90;;;;;;5097707;28;19952;-75
2022/11/08 03:23:26;;;;;;;;;;;10.10;99.90;;;;;;5094061;28;19915;-75
2022/11/08 03:25:52;;;;;;;;;;;10.10;99.90;;;;;;5094397;28;19948;-75
2022/11/08 03:28:17;;;;;;;;;;;10.10;99.90;;;;;;5095197;28;20261;-75
2022/11/08 03:30:43;;;;;;;;;;;10.10;99.90;;;;;;5094446;28;19908;-75
2022/11/08 03:33:08;;;;;;;;;;;10.10;99.90;;;;;;5095175;28;19920;-74
2022/11/08 03:35:34;;;;;;;;;;;10.10;99.90;;;;;;5095515;28;19962;-75
2022/11/08 03:37:59;;;;;;;;;;;10.10;99.90;;;;;;5095247;28;19908;-75
2022/11/08 03:40:25;;;;;;;;;;;10.10;99.90;;;;;;5095419;28;19915;-76
2022/11/08 03:42:51;;;;;;;;;;;10.10;99.90;;;;;;5094147;28;19908;-75
2022/11/08 03:45:17;;;;;;;;;;;10.10;99.90;;;;;;5094808;28;19953;-76
2022/11/08 03:47:43;;;;;;;;;;;10.10;99.90;;;;;;5092786;28;20053;-75
2022/11/08 03:50:09;;;;;;;;;;;10.20;99.90;;;;;;5094621;28;19912;-75
2022/11/08 03:52:55;;;;;;;;;;;10.20;99.90;;;;;;5094273;28;20454;-75
2022/11/08 03:55:22;;;;;;;;;;;10.20;99.90;;;;;;5094518;28;19912;-75
2022/11/08 03:57:48;;;;;;;;;;;10.20;99.90;;;;;;5094311;28;19908;-76
2022/11/08 04:00:15;;;;;;;;;;;10.20;99.90;;;;;;5095314;28;20254;-76
2022/11/08 04:02:40;;;;;;;;;;;10.20;99.90;;;;;;5094301;28;19920;-75
2022/11/08 04:05:07;;;;;;;;;;;10.20;99.90;;;;;;5093283;28;20269;-75
2022/11/08 04:07:33;;;;;;;;;;;10.20;99.90;;;;;;5093085;28;19908;-75
2022/11/08 04:09:58;;;;;;;;;;;10.30;99.90;;;;;;5092509;28;19919;-74
2022/11/08 04:15:13;;;;;;;;;;;10.30;99.90;;;;;;5094742;28;19919;-75
2022/11/08 04:23:07;;;;;;;;;;;10.50;99.90;;;;;;5094046;28;20412;-75
2022/11/08 04:25:33;;;;;;;;;;;10.60;99.90;;;;;;5094137;28;19908;-75
2022/11/08 04:27:58;;;;;;;;;;;10.60;99.90;;;;;;5093846;28;19998;-75
2022/11/08 04:30:24;;;;;;;;;;;10.60;99.90;;;;;;5094577;28;19912;-75
2022/11/08 04:32:49;;;;;;;;;;;10.60;99.90;;;;;;5093144;28;19951;-75
2022/11/08 04:35:15;;;;;;;;;;;10.60;99.90;;;;;;5092846;28;20281;-75
2022/11/08 04:37:41;;;;;;;;;;;10.60;99.90;;;;;;5093455;28;19908;-76
2022/11/08 04:40:07;;;;;;;;;;;10.60;99.90;;;;;;5092579;28;20353;-75
2022/11/08 04:42:32;;;;;;;;;;;10.60;99.90;;;;;;5093804;28;20313;-75
2022/11/08 04:44:58;;;;;;;;;;;10.50;99.90;;;;;;5093492;28;19908;-75
2022/11/08 04:47:23;;;;;;;;;;;10.60;99.90;;;;;;5093250;28;19908;-75
2022/11/08 04:49:49;;;;;;;;;;;10.50;99.90;;;;;;5094110;28;20398;-75
2022/11/08 04:52:14;;;;;;;;;;;10.60;99.90;;;;;;5093144;28;19908;-74
2022/11/08 04:54:43;;;;;;;;;;;10.60;99.90;;;;;;5093675;28;19919;-74
2022/11/08 04:57:09;;;;;;;;;;;10.60;99.90;;;;;;5093288;28;19913;-75
2022/11/08 04:59:35;;;;;;;;;;;10.60;99.90;;;;;;5093315;28;19915;-74
2022/11/08 05:02:00;;;;;;;;;;;10.60;99.90;;;;;;5092493;28;20478;-75
2022/11/08 05:04:26;;;;;;;;;;;10.60;99.90;;;;;;5092905;28;19909;-75
2022/11/08 05:06:51;;;;;;;;;;;10.70;99.90;;;;;;5093098;28;19916;-74
2022/11/08 05:09:17;;;;;;;;;;;10.70;99.90;;;;;;5093332;28;19908;-74
2022/11/08 05:11:43;;;;;;;;;;;10.80;99.90;;;;;;5092256;28;19915;-75
2022/11/08 05:14:08;;;;;;;;;;;10.90;99.90;;;;;;5092695;28;19916;-76
2022/11/08 05:16:34;;;;;;;;;;;10.90;99.90;;;;;;5093158;28;19934;-75
2022/11/08 05:18:59;;;;;;;;;;;10.90;99.90;;;;;;5092317;28;19943;-76
2022/11/08 05:24:12;;;;;;;;;;;11.00;99.90;;;;;;5093027;28;19915;-75
2022/11/08 05:26:40;;;;;;;;;;;11.00;99.90;;;;;;5092657;28;19947;-75
2022/11/08 05:29:06;;;;;;;;;;;10.90;99.90;;;;;;5092688;28;19908;-76
2022/11/08 05:31:31;;;;;;;;;;;10.90;99.90;;;;;;5092552;28;19908;-76
2022/11/08 05:33:58;;;;;;;;;;;10.80;99.90;;;;;;5092339;28;19923;-76
2022/11/08 05:36:24;;;;;;;;;;;10.80;99.90;;;;;;5092775;28;19916;-75
2022/11/08 05:38:50;;;;;;;;;;;10.80;99.90;;;;;;5092203;28;19953;-76
2022/11/08 05:41:16;;;;;;;;;;;10.70;99.90;;;;;;5092822;28;19908;-75
2022/11/08 05:43:43;;;;;;;;;;;10.70;99.90;;;;;;5092808;28;19908;-75
2022/11/08 05:46:09;;;;;;;;;;;10.70;99.90;;;;;;5092447;28;19991;-75
2022/11/08 05:48:34;;;;;;;;;;;10.70;99.90;;;;;;5092891;28;19997;-75
2022/11/08 05:51:00;;;;;;;;;;;10.60;99.90;;;;;;5091799;28;19908;-75
2022/11/08 05:53:26;;;;;;;;;;;10.50;99.90;;;;;;5092493;28;20049;-75
2022/11/08 05:55:58;;;;;;;;;;;10.50;99.90;;;;;;5092218;28;19912;-74
2022/11/08 05:58:25;;;;;;;;;;;10.40;99.90;;;;;;5092372;28;19986;-75
2022/11/08 06:00:50;;;;;;;;;;;10.40;99.90;;;;;;5090468;28;19928;-74
2022/11/08 06:03:16;;;;;;;;;;;10.40;99.90;;;;;;5092375;28;19908;-75
2022/11/08 06:05:41;;;;;;;;;;;10.30;99.90;;;;;;5091901;28;20261;-75
2022/11/08 06:08:07;;;;;;;;;;;10.30;99.90;;;;;;5091792;28;19916;-76
2022/11/08 06:10:33;;;;;;;;;;;10.20;99.90;;;;;;5092576;28;19916;-76
2022/11/08 06:12:59;;;;;;;;;;;10.20;99.90;;;;;;5090639;28;19922;-75
2022/11/08 06:15:25;;;;;;;;;;;10.10;99.90;;;;;;5091948;28;20283;-75
2022/11/08 06:17:51;;;;;;;;;;;10.10;99.90;;;;;;5091770;28;19994;-75
2022/11/08 06:20:16;;;;;;;;;;;10.10;99.90;;;;;;5092411;28;19908;-75
2022/11/08 06:22:42;;;;;;;;;;;10.10;99.90;;;;;;5092253;28;19915;-76
2022/11/08 06:25:08;;;;;;;;;;;10.10;99.90;;;;;;5092462;28;19948;-76
2022/11/08 06:27:35;;;;;;;;;;;10.20;99.90;;;;;;5092774;28;19908;-75
2022/11/08 06:30:01;;;;;;;;;;;10.20;99.90;;;;;;5091482;28;20002;-75
2022/11/08 06:32:26;;;;;;;;;;;10.10;99.90;;;;;;5092277;28;19948;-76
2022/11/08 06:34:52;;;;;;;;;;;10.20;99.90;;;;;;5093799;28;19916;-74
2022/11/08 06:37:17;;;;;;;;;;;10.10;99.90;;;;;;5097495;28;19908;-77
2022/11/08 06:39:43;;;;;;;;;;;10.10;99.90;;;;;;5096996;28;19908;-75
2022/11/08 06:42:09;;;;;;;;;;;10.10;99.90;;;;;;5096501;28;19912;-75
2022/11/08 06:44:35;;;;;;;;;;;10.10;99.90;;;;;;5097777;28;20276;-75
2022/11/08 06:47:00;;;;;;;;;;;10.00;99.90;;;;;;5096702;28;19908;-75
2022/11/08 06:49:26;;;;;;;;;;;10.00;99.90;;;;;;5095889;28;19908;-76
2022/11/08 06:51:52;;;;;;;;;;;10.10;99.90;;;;;;5095698;28;19908;-75
2022/11/08 06:54:17;;;;;;;;;;;10.10;99.90;;;;;;5096269;28;20299;-76
2022/11/08 06:56:44;;;;;;;;;;;10.20;99.90;;;;;;5096255;28;20487;-75
2022/11/08 06:59:09;;;;;;;;;;;10.30;99.90;;;;;;5095378;28;19922;-75
2022/11/08 07:01:35;;;;;;;;;;;10.40;99.90;;;;;;5095639;28;20010;-76
2022/11/08 07:04:01;;;;;;;;;;;10.50;99.90;;;;;;5095184;28;19923;-76
2022/11/08 07:06:27;;;;;;;;;;;10.50;99.90;;;;;;5095573;28;19908;-75
2022/11/08 07:08:53;;;;;;;;;;;10.60;99.90;;;;;;5094743;28;19915;-76
2022/11/08 07:11:18;;;;;;;;;;;10.60;99.90;;;;;;5095623;28;20384;-76
2022/11/08 07:13:44;;;;;;;;;;;10.60;99.90;;;;;;5094941;28;19935;-76
2022/11/08 07:16:09;;;;;;;;;;;10.60;99.90;;;;;;5094909;28;19908;-75
2022/11/08 07:18:35;;;;;;;;;;;10.60;99.90;;;;;;5095510;28;19955;-75
2022/11/08 07:21:01;;;;;;;;;;;10.60;99.90;;;;;;5094411;28;20391;-76
2022/11/08 07:23:27;;;;;;;;;;;10.60;99.90;;;;;;5095603;28;19962;-75
2022/11/08 07:25:52;;;;;;;;;;;10.70;99.90;;;;;;5094424;28;19908;-75
2022/11/08 07:28:18;;;;;;;;;;;10.60;99.90;;;;;;5094760;28;19908;-75
2022/11/08 07:30:45;;;;;;;;;;;10.60;99.90;;;;;;5095045;28;19934;-75
2022/11/08 07:33:10;;;;;;;;;;;10.60;99.90;;;;;;5093955;28;20516;-75
2022/11/08 07:35:36;;;;;;;;;;;10.60;99.90;;;;;;5093756;28;19916;-76
2022/11/08 07:38:02;;;;;;;;;;;10.50;99.90;;;;;;5094636;28;19915;-75
2022/11/08 07:40:27;;;;;;;;;;;10.50;99.90;;;;;;5095077;28;19908;-76
2022/11/08 07:42:56;;;;;;;;;;;10.50;99.90;;;;;;5093084;28;19908;-76
2022/11/08 07:45:21;;;;;;;;;;;10.50;99.90;;;;;;5094773;28;19979;-76
2022/11/08 07:47:47;;;;;;;;;;;10.50;99.90;;;;;;5094684;28;19916;-75
2022/11/08 07:50:12;;;;;;;;;;;10.40;99.90;;;;;;5094271;28;19910;-75
2022/11/08 07:52:38;;;;;;;;;;;10.40;99.90;;;;;;5094644;28;20388;-75
2022/11/08 07:55:04;;;;;;;;;;;10.40;99.90;;;;;;5094246;28;20369;-76
2022/11/08 07:57:29;;;;;;;;;;;10.40;99.90;;;;;;5094316;28;19918;-75
2022/11/08 07:59:55;;;;;;;;;;;10.30;99.90;;;;;;5094308;28;19908;-76
2022/11/08 08:02:22;;;;;;;;;;;10.30;99.90;;;;;;5094364;28;19920;-76
2022/11/08 08:04:48;;;;;;;;;;;10.30;99.90;;;;;;5094487;28;19951;-76
2022/11/08 08:07:14;;;;;;;;;;;10.30;99.90;;;;;;5097922;28;19915;-74
2022/11/08 08:09:40;;;;;;;;;;;10.30;99.90;;;;;;5095781;28;19908;-75
2022/11/08 08:12:07;;;;;;;;;;;10.20;99.90;;;;;;5093339;28;19908;-76
2022/11/08 08:14:32;;;;;;;;;;;10.20;99.90;;;;;;5094603;28;19989;-74
2022/11/08 08:16:58;;;;;;;;;;;10.30;99.90;;;;;;5093709;28;19912;-75
2022/11/08 08:19:23;;;;;;;;;;;10.30;99.90;;;;;;5092929;28;20265;-76
2022/11/08 08:21:49;;;;;;;;;;;10.30;99.90;;;;;;5093537;28;19912;-75
2022/11/08 08:24:14;;;;;;;;;;;10.40;99.90;;;;;;5093216;28;19911;-75
2022/11/08 08:26:40;;;;;;;;;;;10.30;99.90;;;;;;5092790;28;20006;-75
2022/11/08 08:29:05;;;;;;;;;;;10.40;99.90;;;;;;5092143;28;19915;-74
2022/11/08 08:31:31;;;;;;;;;;;10.40;99.90;;;;;;5093761;28;20319;-75
2022/11/08 08:33:56;;;;;;;;;;;10.40;99.90;;;;;;5093426;28;19913;-75
2022/11/08 08:36:22;;;;;;;;;;;10.50;99.90;;;;;;5093583;28;19912;-75
2022/11/08 08:38:48;;;;;;;;;;;10.50;99.90;;;;;;5093717;28;19908;-74
2022/11/08 08:41:14;;;;;;;;;;;10.50;99.90;;;;;;5092688;28;20672;-75
2022/11/08 08:43:39;;;;;;;;;;;10.50;99.90;;;;;;5092520;28;19998;-75
2022/11/08 08:46:05;;;;;;;;;;;10.60;99.90;;;;;;5093373;28;19913;-75
2022/11/08 08:48:32;;;;;;;;;;;10.70;99.90;;;;;;5093599;28;19908;-75
2022/11/08 08:50:57;;;;;;;;;;;10.70;99.90;;;;;;5093149;28;20065;-75
2022/11/08 08:53:23;;;;;;;;;;;10.80;99.90;;;;;;5093162;28;20429;-77
2022/11/08 08:55:51;;;;;;;;;;;10.80;99.90;;;;;;5093484;28;19920;-76
2022/11/08 08:58:17;;;;;;;;;;;10.90;99.90;;;;;;5097706;28;19904;-75
2022/11/08 09:00:42;;;;;;;;;;;11.00;99.90;;;;;;5096201;28;19908;-75
2022/11/08 09:03:08;;;;;;;;;;;11.00;99.90;;;;;;5091395;28;19915;-75
2022/11/08 09:05:34;;;;;;;;;;;11.10;99.90;;;;;;5092962;28;19915;-74
2022/11/08 09:08:00;;;;;;;;;;;11.10;99.90;;;;;;5092315;28;19909;-76
2022/11/08 09:10:26;;;;;;;;;;;11.10;99.90;;;;;;5092464;28;19991;-76
2022/11/08 09:12:52;;;;;;;;;;;11.00;99.90;;;;;;5092724;28;20011;-76
2022/11/08 09:15:18;;;;;;;;;;;11.00;99.90;;;;;;5092167;28;19947;-75
2022/11/08 09:17:43;;;;;;;;;;;11.00;99.90;;;;;;5093020;28;20379;-75
2022/11/08 09:20:09;;;;;;;;;;;11.00;99.90;;;;;;5090789;28;19916;-75
2022/11/08 09:22:35;;;;;;;;;;;11.00;99.90;;;;;;5092262;28;19908;-75
2022/11/08 09:25:01;;;;;;;;;;;11.10;99.90;;;;;;5092519;28;19908;-75
2022/11/08 09:27:27;;;;;;;;;;;11.10;99.90;;;;;;5092849;28;19961;-75
2022/11/08 09:29:52;;;;;;;;;;;11.20;99.90;;;;;;5092999;28;20002;-75
2022/11/08 09:32:18;;;;;;;;;;;11.30;99.90;;;;;;5090930;28;20184;-75
2022/11/08 09:34:44;;;;;;;;;;;11.30;99.90;;;;;;5092807;28;19923;-75
2022/11/08 09:37:09;;;;;;;;;;;11.30;99.90;;;;;;5091826;28;19908;-76
2022/11/08 09:39:35;;;;;;;;;;;11.40;99.90;;;;;;5092333;28;20355;-74
2022/11/08 09:42:15;;;;;;;;;;;11.40;99.90;;;;;;5092020;28;19912;-76
2022/11/08 09:44:41;;;;;;;;;;;11.50;99.90;;;;;;5090893;28;19909;-76
2022/11/08 09:47:13;;;;;;;;;;;11.50;99.90;;;;;;5092304;28;19908;-76
2022/11/08 09:49:44;;;;;;;;;;;11.60;99.90;;;;;;5092701;28;19912;-75
2022/11/08 09:52:12;;;;;;;;;;;11.60;99.90;;;;;;5091617;28;19912;-75
2022/11/08 09:54:41;;;;;;;;;;;11.60;99.90;;;;;;5091008;28;19912;-74
2022/11/08 09:57:15;;;;;;;;;;;11.60;99.90;;;;;;5092060;28;19912;-74
2022/11/08 09:59:43;;;;;;;;;;;11.60;99.90;;;;;;5093185;28;19912;-75
2022/11/08 10:02:14;;;;;;;;;;;11.50;99.90;;;;;;5090944;28;19920;-74
2022/11/08 10:04:40;;;;;;;;;;;11.50;99.90;;;;;;5093230;28;19909;-75
2022/11/08 10:07:24;;;;;;;;;;;11.50;99.90;;;;;;5091177;28;20049;-76
2022/11/08 10:10:02;;;;;;;;;;;11.50;99.90;;;;;;5091606;28;19932;-75
2022/11/08 10:12:40;;;;;;;;;;;11.50;99.90;;;;;;5092855;28;19908;-74
2022/11/08 10:15:25;;;;;;;;;;;11.50;99.90;;;;;;5092656;28;19964;-75
2022/11/08 10:18:09;;;;;;;;;;;11.50;99.90;;;;;;5092625;28;20439;-75
2022/11/08 10:20:43;;;;;;;;;;;11.50;99.90;;;;;;5079102;28;19916;-74
2022/11/08 10:23:38;;;;;;;;;;;11.60;99.90;;;;;;5072172;28;19920;-75
2022/11/08 10:26:04;;;;;;;;;;;11.70;99.90;;;;;;5067407;28;19991;-75
2022/11/08 10:28:35;;;;;;;;;;;11.80;99.90;;;;;;5072473;28;19944;-75
2022/11/08 10:31:01;;;;;;;;;;;11.80;99.90;;;;;;5072375;28;19908;-75
2022/11/08 10:33:28;;;;;;;;;;;11.90;99.90;;;;;;5070746;28;19913;-75
2022/11/08 10:36:02;;;;;;;;;;;11.90;99.90;;;;;;5072493;28;19912;-74
2022/11/08 10:38:33;;;;;;;;;;;12.00;99.90;;;;;;5071839;28;19915;-75
2022/11/08 10:41:19;;;;;;;;;;;12.10;99.90;;;;;;5072487;28;19927;-76
2022/11/08 10:43:47;;;;;;;;;;;12.20;99.90;;;;;;5070625;28;19912;-74
2022/11/08 10:46:25;;;;;;;;;;;12.20;99.90;;;;;;5071592;28;19959;-75
2022/11/08 10:48:51;;;;;;;;;;;12.20;99.90;;;;;;5072091;28;20370;-74
2022/11/08 10:51:16;;;;;;;;;;;12.30;99.90;;;;;;5071771;28;19909;-74
2022/11/08 10:53:43;;;;;;;;;;;12.40;99.90;;;;;;5072645;28;19912;-75
2022/11/08 10:56:09;;;;;;;;;;;12.40;99.90;;;;;;5071622;28;20530;-76
2022/11/08 10:58:38;;;;;;;;;;;12.40;99.90;;;;;;5071189;28;19995;-75
2022/11/08 11:01:10;;;;;;;;;;;12.50;99.90;;;;;;5071273;28;20362;-75
2022/11/08 11:03:35;;;;;;;;;;;12.40;99.90;;;;;;5072267;28;19908;-76
2022/11/08 11:06:01;;;;;;;;;;;12.40;99.90;;;;;;5072099;28;19915;-75
2022/11/08 11:08:27;;;;;;;;;;;12.40;99.90;;;;;;5071055;28;19908;-75
2022/11/08 11:10:53;;;;;;;;;;;12.50;99.90;;;;;;5071289;28;19915;-74
2022/11/08 11:13:20;;;;;;;;;;;12.40;99.90;;;;;;5070952;28;19912;-75
2022/11/08 11:15:46;;;;;;;;;;;12.50;99.90;;;;;;5071109;28;19912;-75
2022/11/08 11:18:21;;;;;;;;;;;12.50;99.90;;;;;;5071047;28;19954;-75
2022/11/08 11:21:05;;;;;;;;;;;12.50;99.90;;;;;;5072638;28;19995;-74
2022/11/08 11:23:35;;;;;;;;;;;12.50;99.90;;;;;;5075440;28;19967;-75
2022/11/08 11:26:00;;;;;;;;;;;12.50;99.90;;;;;;5076196;28;19908;-75
2022/11/08 11:28:26;;;;;;;;;;;12.40;99.90;;;;;;5078480;28;20017;-74
2022/11/08 11:31:02;;;;;;;;;;;12.40;99.90;;;;;;5075454;28;19952;-75
2022/11/08 11:33:28;;;;;;;;;;;12.40;99.90;;;;;;5074936;28;19913;-75
2022/11/08 11:36:05;;;;;;;;;;;12.40;99.90;;;;;;5075258;28;19966;-75
2022/11/08 11:38:37;;;;;;;;;;;12.40;99.90;;;;;;5074893;28;19915;-75
2022/11/08 11:41:05;;;;;;;;;;;12.40;99.90;;;;;;5073602;28;19908;-75
2022/11/08 11:43:31;;;;;;;;;;;12.40;99.90;;;;;;5075166;28;20321;-75
2022/11/08 11:45:56;;;;;;;;;;;12.60;99.90;;;;;;5074723;28;20011;-75
2022/11/08 11:48:29;;;;;;;;;;;12.60;99.90;;;;;;5074259;28;19913;-75
2022/11/08 11:50:55;;;;;;;;;;;12.60;99.90;;;;;;5074914;28;20323;-76
2022/11/08 11:53:26;;;;;;;;;;;12.70;99.90;;;;;;5089940;28;20349;-76
2022/11/08 11:56:09;;;;;;;;;;;12.70;99.90;;;;;;5075110;28;20423;-75
2022/11/08 11:58:44;;;;;;;;;;;12.70;99.90;;;;;;5084997;28;19915;-75
2022/11/08 12:01:12;;;;;;;;;;;12.70;99.90;;;;;;5094310;28;19920;-75
2022/11/08 12:03:57;;;;;;;;;;;12.70;99.90;;;;;;5094885;28;19908;-75
2022/11/08 12:06:27;;;;;;;;;;;12.70;99.90;;;;;;5094016;28;19911;-75
2022/11/08 12:08:59;;;;;;;;;;;12.60;99.90;;;;;;5094535;28;19915;-74
2022/11/08 12:11:25;;;;;;;;;;;12.60;99.90;;;;;;5092753;28;20798;-75
2022/11/08 12:14:06;;;;;;;;;;;12.50;99.90;;;;;;5094649;28;19916;-75
2022/11/08 12:16:35;;;;;;;;;;;12.40;99.90;;;;;;5094848;28;19913;-73
2022/11/08 12:19:18;;;;;;;;;;;12.30;99.90;;;;;;5094319;28;19999;-74
2022/11/08 12:21:52;;;;;;;;;;;12.30;99.90;;;;;;5094607;28;19918;-74
2022/11/08 12:24:18;;;;;;;;;;;12.30;99.90;;;;;;5093884;28;20246;-74
2022/11/08 12:26:43;;;;;;;;;;;12.30;99.90;;;;;;5094793;28;19915;-74
2022/11/08 12:29:23;;;;;;;;;;;12.40;99.90;;;;;;5093680;28;20026;-74
2022/11/08 12:32:04;;;;;;;;;;;12.40;99.90;;;;;;5093209;28;19912;-75
2022/11/08 12:34:29;;;;;;;;;;;12.40;99.90;;;;;;5093576;28;19939;-74
2022/11/08 12:36:58;;;;;;;;;;;12.40;99.90;;;;;;5094304;28;20357;-74
2022/11/08 12:39:31;;;;;;;;;;;12.50;99.90;;;;;;5093521;28;20081;-74
2022/11/08 12:42:06;;;;;;;;;;;12.50;99.90;;;;;;5094107;28;19917;-75
2022/11/08 12:44:45;;;;;;;;;;;12.50;99.90;;;;;;5093514;28;20430;-74
2022/11/08 12:47:16;;;;;;;;;;;12.50;99.90;;;;;;5093443;28;19952;-75
2022/11/08 12:49:42;;;;;;;;;;;12.50;99.90;;;;;;5092540;28;20348;-75
2022/11/08 12:52:15;;;;;;;;;;;12.50;99.90;;;;;;5092851;28;19908;-76
2022/11/08 12:54:42;;;;;;;;;;;12.50;99.90;;;;;;5092747;28;20280;-75
2022/11/08 12:57:13;;;;;;;;;;;12.60;99.90;;;;;;5092384;28;21112;-75
2022/11/08 12:59:41;;;;;;;;;;;12.60;99.90;;;;;;5093565;28;19930;-74
2022/11/08 13:02:14;;;;;;;;;;;12.70;99.90;;;;;;5093017;28;19920;-75
2022/11/08 13:04:58;;;;;;;;;;;12.70;99.90;;;;;;5093741;28;19912;-75
2022/11/08 13:07:37;;;;;;;;;;;12.70;99.90;;;;;;5093166;28;19908;-75
2022/11/08 13:10:18;;;;;;;;;;;12.70;99.90;;;;;;5093692;28;19954;-75
2022/11/08 13:13:02;;;;;;;;;;;12.70;99.90;;;;;;5097023;28;19908;-75
2022/11/08 13:15:28;;;;;;;;;;;12.70;99.90;;;;;;5100636;28;19912;-75
2022/11/08 13:18:06;;;;;;;;;;;12.60;99.90;;;;;;5096703;28;19908;-75
2022/11/08 13:20:45;;;;;;;;;;;12.50;99.90;;;;;;5093862;28;19909;-75
2022/11/08 13:23:19;;;;;;;;;;;12.50;99.90;;;;;;5093386;28;19915;-75
2022/11/08 13:25:45;;;;;;;;;;;12.50;99.90;;;;;;5093721;28;19908;-74
2022/11/08 13:28:29;;;;;;;;;;;12.50;99.90;;;;;;5092884;28;20023;-75
2022/11/08 13:30:58;;;;;;;;;;;12.50;99.90;;;;;;5092491;28;19908;-75
2022/11/08 13:33:27;;;;;;;;;;;12.50;99.90;;;;;;5092869;28;19912;-73
2022/11/08 13:36:12;;;;;;;;;;;12.40;99.90;;;;;;5092381;28;19912;-74
2022/11/08 13:38:40;;;;;;;;;;;12.40;99.90;;;;;;5093727;28;20257;-75
2022/11/08 13:41:11;;;;;;;;;;;12.40;99.90;;;;;;5093195;28;19908;-77
2022/11/08 13:43:37;;;;;;;;;;;12.40;99.90;;;;;;5093130;28;20080;-76
2022/11/08 13:46:24;;;;;;;;;;;12.40;99.90;;;;;;5093627;28;20393;-76
2022/11/08 13:48:56;;;;;;;;;;;12.40;99.90;;;;;;5092346;28;20329;-75
2022/11/08 13:51:27;;;;;;;;;;;12.40;99.90;;;;;;5092863;28;19994;-76
2022/11/08 13:53:56;;;;;;;;;;;12.40;99.90;;;;;;5093272;28;19912;-75
2022/11/08 13:56:39;;;;;;;;;;;12.40;99.90;;;;;;5092121;28;20420;-74
2022/11/08 13:59:23;;;;;;;;;;;12.50;99.90;;;;;;5092893;28;20041;-75
2022/11/08 14:01:48;;;;;;;;;;;12.50;99.90;;;;;;5092882;28;19943;-76
2022/11/08 14:04:28;;;;;;;;;;;12.50;99.90;;;;;;5091078;28;20357;-75
2022/11/08 14:06:53;;;;;;;;;;;12.50;99.90;;;;;;5092838;28;19943;-76
2022/11/08 14:09:22;;;;;;;;;;;12.50;99.90;;;;;;5091274;28;20340;-76
2022/11/08 14:12:05;;;;;;;;;;;12.50;99.90;;;;;;5093081;28;20357;-75
2022/11/08 14:14:40;;;;;;;;;;;12.50;99.90;;;;;;5093124;28;19916;-76
2022/11/08 14:17:14;;;;;;;;;;;12.50;99.90;;;;;;5092334;28;20403;-76
2022/11/08 14:19:43;;;;;;;;;;;12.40;99.90;;;;;;5093060;28;20025;-76
2022/11/08 14:22:28;;;;;;;;;;;12.30;99.90;;;;;;5092095;28;20254;-75
2022/11/08 14:24:59;;;;;;;;;;;12.30;99.90;;;;;;5092714;28;19908;-76
2022/11/08 14:27:32;;;;;;;;;;;12.40;99.90;;;;;;5092448;28;19951;-75
2022/11/08 14:29:59;;;;;;;;;;;12.40;99.90;;;;;;5092754;28;19961;-76
2022/11/08 14:32:24;;;;;;;;;;;12.40;99.90;;;;;;5092228;28;19995;-76
2022/11/08 14:34:50;;;;;;;;;;;12.40;99.90;;;;;;5092459;28;20011;-75
2022/11/08 14:37:22;;;;;;;;;;;12.30;99.90;;;;;;5091787;28;19912;-76
2022/11/08 14:39:47;;;;;;;;;;;12.30;99.90;;;;;;5090308;28;20576;-75
2022/11/08 14:42:19;;;;;;;;;;;12.30;99.90;;;;;;5091062;28;19954;-76